createdAt,value
2023-04-28T00:01:50.757Z,101524.69
2023-04-28T00:04:17.592Z,101524.44
2023-04-28T00:06:44.459Z,101530.00
2023-04-28T00:09:11.064Z,101529.63
2023-04-28T00:11:38.526Z,101531.56
2023-04-28T00:14:05.504Z,101525.38
2023-04-28T00:16:32.114Z,101522.81
2023-04-28T00:18:58.614Z,101528.00
2023-04-28T00:21:25.022Z,101527.78
2023-04-28T00:23:51.450Z,101517.75
2023-04-28T00:26:17.853Z,101521.53
2023-04-28T00:28:44.288Z,101517.22
2023-04-28T00:31:12.510Z,101513.91
2023-04-28T00:33:39.903Z,101514.13
2023-04-28T00:36:07.037Z,101514.66
2023-04-28T00:38:33.447Z,101512.44
2023-04-28T00:40:59.905Z,101509.88
2023-04-28T00:43:26.620Z,101508.41
2023-04-28T00:45:53.390Z,101508.03
2023-04-28T00:48:20.153Z,101505.41
2023-04-28T00:50:48.362Z,101503.09
2023-04-28T00:53:14.806Z,101490.25
2023-04-28T00:55:41.392Z,101501.00
2023-04-28T00:58:08.417Z,101497.47
2023-04-28T01:00:35.221Z,101491.53
2023-04-28T01:03:02.084Z,101490.09
2023-04-28T01:05:34.088Z,101492.22
2023-04-28T01:08:00.565Z,101478.53
2023-04-28T01:10:26.963Z,101484.63
2023-04-28T01:12:53.512Z,101477.97
2023-04-28T01:15:21.292Z,101476.66
2023-04-28T01:17:52.422Z,101474.75
2023-04-28T01:20:18.858Z,101472.69
2023-04-28T01:22:45.410Z,101482.06
2023-04-28T01:25:11.907Z,101475.06
2023-04-28T01:27:38.318Z,101472.06
2023-04-28T01:30:05.443Z,101477.22
2023-04-28T01:32:31.970Z,101472.13
2023-04-28T01:34:58.428Z,101468.75
2023-04-28T01:37:24.857Z,101468.13
2023-04-28T01:39:51.248Z,101465.66
2023-04-28T01:42:18.449Z,101464.56
2023-04-28T01:44:45.498Z,101465.44
2023-04-28T01:47:12.023Z,101454.94
2023-04-28T01:49:38.440Z,101465.72
2023-04-28T01:52:07.593Z,101456.03
2023-04-28T01:54:34.062Z,101464.81
2023-04-28T01:57:00.590Z,101462.66
2023-04-28T01:59:27.266Z,101460.09
2023-04-28T02:01:53.810Z,101454.94
2023-04-28T02:04:20.533Z,101450.31
2023-04-28T02:06:47.058Z,101452.63
2023-04-28T02:09:13.539Z,101452.88
2023-04-28T02:11:39.947Z,101456.25
2023-04-28T02:14:06.443Z,101453.47
2023-04-28T02:16:33.783Z,101446.63
2023-04-28T02:19:00.564Z,101451.63
2023-04-28T02:21:28.023Z,101446.78
2023-04-28T02:23:54.412Z,101444.47
2023-04-28T02:26:20.819Z,101439.84
2023-04-28T02:28:51.382Z,101443.09
2023-04-28T02:31:17.857Z,101439.84
2023-04-28T02:33:45.574Z,101442.84
2023-04-28T02:36:12.171Z,101437.00
2023-04-28T02:38:41.419Z,101434.38
2023-04-28T02:41:09.397Z,101432.59
2023-04-28T02:43:37.496Z,101425.69
2023-04-28T02:46:04.650Z,101420.53
2023-04-28T02:48:31.600Z,101411.72
2023-04-28T02:50:58.024Z,101425.91
2023-04-28T02:53:24.425Z,101423.69
2023-04-28T02:55:51.053Z,101419.53
2023-04-28T02:58:18.229Z,101416.75
2023-04-28T03:00:45.751Z,101413.34
2023-04-28T03:03:12.988Z,101420.00
2023-04-28T03:05:39.750Z,101415.28
2023-04-28T03:08:06.302Z,101416.38
2023-04-28T03:10:32.716Z,101413.97
2023-04-28T03:13:00.370Z,101410.13
2023-04-28T03:15:27.034Z,101410.38
2023-04-28T03:17:53.684Z,101404.13
2023-04-28T03:20:20.184Z,101401.19
2023-04-28T03:22:46.597Z,101408.34
2023-04-28T03:25:13.187Z,101403.41
2023-04-28T03:27:47.888Z,101403.09
2023-04-28T03:30:14.461Z,101405.09
2023-04-28T03:32:40.958Z,101410.19
2023-04-28T03:35:08.224Z,101406.16
2023-04-28T03:37:34.754Z,101402.72
2023-04-28T03:40:01.476Z,101400.56
2023-04-28T03:42:31.165Z,101394.16
2023-04-28T03:45:20.438Z,101394.09
2023-04-28T03:47:46.976Z,101399.34
2023-04-28T03:50:13.420Z,101386.72
2023-04-28T03:52:39.874Z,101388.84
2023-04-28T03:55:07.328Z,101385.41
2023-04-28T03:57:34.441Z,101383.47
2023-04-28T04:00:00.873Z,101380.63
2023-04-28T04:02:28.533Z,101380.00
2023-04-28T04:04:55.305Z,101372.63
2023-04-28T04:07:22.370Z,101371.22
2023-04-28T04:09:48.931Z,101372.47
2023-04-28T04:12:15.377Z,101377.31
2023-04-28T04:14:42.502Z,101368.78
2023-04-28T04:17:10.149Z,101369.63
2023-04-28T04:19:36.601Z,101359.75
2023-04-28T04:22:03.064Z,101366.63
2023-04-28T04:24:30.122Z,101359.63
2023-04-28T04:26:57.502Z,101356.97
2023-04-28T04:29:31.631Z,101359.41
2023-04-28T04:31:59.643Z,101365.06
2023-04-28T04:34:26.085Z,101365.91
2023-04-28T04:36:52.546Z,101361.69
2023-04-28T04:39:19.648Z,101364.38
2023-04-28T04:41:47.464Z,101367.16
2023-04-28T04:44:30.164Z,101361.38
2023-04-28T04:46:58.031Z,101363.53
2023-04-28T04:49:25.915Z,101361.06
2023-04-28T04:51:52.386Z,101359.34
2023-04-28T04:54:19.214Z,101364.16
2023-04-28T04:56:46.660Z,101359.75
2023-04-28T04:59:17.397Z,101355.06
2023-04-28T05:02:04.171Z,101349.91
2023-04-28T05:04:30.699Z,101350.59
2023-04-28T05:06:57.379Z,101356.00
2023-04-28T05:09:23.946Z,101345.06
2023-04-28T05:11:50.450Z,101344.31
2023-04-28T05:14:17.614Z,101342.81
2023-04-28T05:16:44.779Z,101340.66
2023-04-28T05:19:16.122Z,101326.47
2023-04-28T05:21:42.897Z,101324.59
2023-04-28T05:24:09.414Z,101323.00
2023-04-28T05:26:36.587Z,101319.03
2023-04-28T05:29:07.100Z,101325.47
2023-04-28T05:31:33.751Z,101328.41
2023-04-28T05:34:00.236Z,101328.44
2023-04-28T05:36:27.738Z,101330.19
2023-04-28T05:38:54.177Z,101313.53
2023-04-28T05:41:20.767Z,101315.81
2023-04-28T05:43:47.719Z,101310.19
2023-04-28T05:46:28.440Z,101309.34
2023-04-28T05:48:58.077Z,101306.44
2023-04-28T05:51:24.840Z,101307.91
2023-04-28T05:53:51.598Z,101303.84
2023-04-28T05:56:18.209Z,101297.50
2023-04-28T05:58:45.217Z,101287.75
2023-04-28T06:01:11.951Z,101292.22
2023-04-28T06:03:41.724Z,101288.38
2023-04-28T06:06:11.854Z,101291.66
2023-04-28T06:08:38.947Z,101290.25
2023-04-28T06:11:06.191Z,101279.84
2023-04-28T06:13:33.004Z,101284.19
2023-04-28T06:15:59.575Z,101281.94
2023-04-28T06:18:27.029Z,101292.28
2023-04-28T06:20:53.496Z,101279.66
2023-04-28T06:23:20.076Z,101279.97
2023-04-28T06:25:47.768Z,101277.97
2023-04-28T06:28:14.960Z,101273.50
2023-04-28T06:30:41.524Z,101271.94
2023-04-28T06:33:08.031Z,101272.66
2023-04-28T06:35:39.049Z,101274.63
2023-04-28T06:38:06.172Z,101276.66
2023-04-28T06:40:32.593Z,101268.59
2023-04-28T06:43:01.065Z,101274.53
2023-04-28T06:45:35.421Z,101260.97
2023-04-28T06:48:02.292Z,101265.47
2023-04-28T06:50:28.822Z,101265.53
2023-04-28T06:52:55.300Z,101262.16
2023-04-28T06:55:21.711Z,101252.28
2023-04-28T06:57:48.153Z,101245.84
2023-04-28T07:00:15.365Z,101245.59
2023-04-28T07:02:42.107Z,101245.03
2023-04-28T07:05:09.442Z,101249.22
2023-04-28T07:07:38.557Z,101245.25
2023-04-28T07:10:06.099Z,101241.53
2023-04-28T07:12:32.561Z,101235.53
2023-04-28T07:14:58.969Z,101227.94
2023-04-28T07:17:25.464Z,101237.84
2023-04-28T07:19:51.909Z,101222.06
2023-04-28T07:22:18.334Z,101223.81
2023-04-28T07:24:44.932Z,101217.59
2023-04-28T07:27:11.341Z,101210.81
2023-04-28T07:29:38.024Z,101210.00
2023-04-28T07:32:06.851Z,101206.56
2023-04-28T07:34:35.676Z,101214.06
2023-04-28T07:37:03.131Z,101204.38
2023-04-28T07:39:31.856Z,101199.94
2023-04-28T07:41:58.984Z,101205.91
2023-04-28T07:44:25.558Z,101201.00
2023-04-28T07:46:53.400Z,101198.91
2023-04-28T07:49:19.820Z,101196.91
2023-04-28T07:51:46.350Z,101195.97
2023-04-28T07:54:12.787Z,101194.63
2023-04-28T07:56:39.238Z,101191.03
2023-04-28T07:59:05.642Z,101198.56
2023-04-28T08:01:32.112Z,101194.81
2023-04-28T08:03:58.703Z,101198.25
2023-04-28T08:06:25.579Z,101198.44
2023-04-28T08:08:52.054Z,101197.53
2023-04-28T08:11:19.548Z,101188.03
2023-04-28T08:13:47.002Z,101183.06
2023-04-28T08:16:13.539Z,101180.13
2023-04-28T08:18:40.137Z,101179.78
2023-04-28T08:21:06.715Z,101174.09
2023-04-28T08:23:33.127Z,101175.41
2023-04-28T08:25:59.540Z,101175.28
2023-04-28T08:28:26.252Z,101173.38
2023-04-28T08:30:54.442Z,101169.34
2023-04-28T08:33:20.933Z,101163.00
2023-04-28T08:35:47.337Z,101162.31
2023-04-28T08:38:13.899Z,101160.72
2023-04-28T08:40:42.627Z,101159.88
2023-04-28T08:43:10.636Z,101151.25
2023-04-28T08:45:42.899Z,101154.00
2023-04-28T08:48:20.573Z,101147.72
2023-04-28T08:50:51.015Z,101148.94
2023-04-28T08:53:27.523Z,101148.47
2023-04-28T08:55:58.123Z,101142.63
2023-04-28T08:58:25.750Z,101141.75
2023-04-28T09:00:53.630Z,101136.94
2023-04-28T09:03:20.777Z,101135.16
2023-04-28T09:05:47.788Z,101131.56
2023-04-28T09:08:14.656Z,101128.59
2023-04-28T09:10:41.202Z,101124.00
2023-04-28T09:13:07.878Z,101130.53
2023-04-28T09:15:37.307Z,101118.63
2023-04-28T09:18:06.246Z,101118.16
2023-04-28T09:20:34.023Z,101117.00
2023-04-28T09:23:15.245Z,101109.97
2023-04-28T09:25:56.428Z,101112.09
2023-04-28T09:28:22.927Z,101108.19
2023-04-28T09:30:49.347Z,101110.41
2023-04-28T09:33:18.526Z,101109.06
2023-04-28T09:35:45.804Z,101105.63
2023-04-28T09:38:13.202Z,101096.03
2023-04-28T09:41:01.533Z,101095.28
2023-04-28T09:43:34.847Z,101093.28
2023-04-28T09:46:03.452Z,101083.66
2023-04-28T09:48:34.851Z,101091.38
2023-04-28T09:51:03.156Z,101085.00
2023-04-28T09:53:30.378Z,101082.28
2023-04-28T09:55:58.714Z,101089.28
2023-04-28T09:58:26.841Z,101088.47
2023-04-28T10:00:57.912Z,101080.28
2023-04-28T10:03:30.132Z,101077.16
2023-04-28T10:05:58.830Z,101074.72
2023-04-28T10:08:27.449Z,101073.16
2023-04-28T10:10:54.744Z,101064.59
2023-04-28T10:13:22.669Z,101062.25
2023-04-28T10:15:49.923Z,101064.38
2023-04-28T10:18:16.973Z,101050.00
2023-04-28T10:20:49.447Z,101057.56
2023-04-28T10:23:58.397Z,101050.31
2023-04-28T10:26:51.524Z,101044.41
2023-04-28T10:29:24.201Z,101045.38
2023-04-28T10:32:19.706Z,101039.16
2023-04-28T10:34:47.199Z,101029.56
2023-04-28T10:37:15.057Z,101028.47
2023-04-28T10:40:09.305Z,101030.84
2023-04-28T10:42:52.796Z,101023.66
2023-04-28T10:45:58.059Z,101020.81
2023-04-28T10:48:33.428Z,101019.22
2023-04-28T10:51:15.017Z,101014.16
2023-04-28T10:53:51.257Z,101009.66
2023-04-28T10:56:27.831Z,101014.66
2023-04-28T10:58:58.358Z,101009.28
2023-04-28T11:01:29.675Z,100997.69
2023-04-28T11:04:13.885Z,100998.97
2023-04-28T11:06:42.183Z,100998.34
2023-04-28T11:09:14.170Z,101005.44
2023-04-28T11:12:00.886Z,100990.69
2023-04-28T11:14:33.115Z,100987.31
2023-04-28T11:17:03.451Z,100989.75
2023-04-28T11:19:35.634Z,100991.69
2023-04-28T11:22:03.458Z,100990.13
2023-04-28T11:24:31.080Z,100988.56
2023-04-28T11:26:58.856Z,100995.47
2023-04-28T11:29:39.634Z,100992.56
2023-04-28T11:32:08.561Z,100991.81
2023-04-28T11:34:36.277Z,100994.50
2023-04-28T11:37:03.313Z,100982.34
2023-04-28T11:39:31.563Z,100985.03
2023-04-28T11:41:59.653Z,100993.56
2023-04-28T11:44:28.155Z,100981.19
2023-04-28T11:46:57.378Z,100982.91
2023-04-28T11:49:24.625Z,100979.06
2023-04-28T11:51:52.535Z,100975.25
2023-04-28T11:54:23.976Z,100970.38
2023-04-28T11:56:51.303Z,100978.38
2023-04-28T11:59:20.616Z,100982.03
2023-04-28T12:01:49.907Z,100973.75
2023-04-28T12:04:39.201Z,100970.16
2023-04-28T12:07:13.374Z,100959.78
2023-04-28T12:09:41.970Z,100961.13
2023-04-28T12:12:10.068Z,100951.16
2023-04-28T12:14:56.274Z,100952.75
2023-04-28T12:17:26.786Z,100948.44
2023-04-28T12:19:57.944Z,100951.59
2023-04-28T12:22:25.419Z,100946.28
2023-04-28T12:25:05.395Z,100943.31
2023-04-28T12:27:32.225Z,100940.13
2023-04-28T12:29:58.638Z,100937.00
2023-04-28T12:32:43.500Z,100935.66
2023-04-28T12:35:09.953Z,100936.00
2023-04-28T12:37:38.319Z,100936.00
2023-04-28T12:40:08.476Z,100934.81
2023-04-28T12:42:35.793Z,100928.81
2023-04-28T12:45:02.281Z,100919.06
2023-04-28T12:47:29.111Z,100936.31
2023-04-28T12:49:55.539Z,100921.69
2023-04-28T12:52:22.297Z,100920.69
2023-04-28T12:54:49.264Z,100919.50
2023-04-28T12:57:19.673Z,100915.66
2023-04-28T12:59:49.019Z,100913.19
2023-04-28T13:02:15.514Z,100905.47
2023-04-28T13:04:46.318Z,100905.16
2023-04-28T13:07:13.091Z,100906.34
2023-04-28T13:09:39.550Z,100908.34
2023-04-28T13:12:06.040Z,100907.50
2023-04-28T13:14:32.813Z,100905.69
2023-04-28T13:16:59.222Z,100891.81
2023-04-28T13:19:25.767Z,100895.53
2023-04-28T13:21:52.186Z,100890.69
2023-04-28T13:24:18.605Z,100891.69
2023-04-28T13:26:45.199Z,100889.53
2023-04-28T13:29:11.721Z,100880.34
2023-04-28T13:31:38.413Z,100882.66
2023-04-28T13:34:06.051Z,100883.84
2023-04-28T13:36:33.152Z,100879.19
2023-04-28T13:39:01.647Z,100880.50
2023-04-28T13:41:28.729Z,100873.13
2023-04-28T13:43:55.158Z,100878.31
2023-04-28T13:46:21.719Z,100870.84
2023-04-28T13:48:48.457Z,100872.69
2023-04-28T13:51:15.058Z,100869.00
2023-04-28T13:53:41.464Z,100872.53
2023-04-28T13:56:08.276Z,100869.34
2023-04-28T13:58:34.847Z,100866.53
2023-04-28T14:01:01.308Z,100869.84
2023-04-28T14:03:27.893Z,100868.72
2023-04-28T14:05:56.350Z,100864.72
2023-04-28T14:08:24.871Z,100868.38
2023-04-28T14:10:52.322Z,100861.06
2023-04-28T14:13:19.542Z,100855.56
2023-04-28T14:15:57.851Z,100858.69
2023-04-28T14:18:25.420Z,100861.38
2023-04-28T14:20:51.956Z,100860.03
2023-04-28T14:23:18.405Z,100857.88
2023-04-28T14:25:44.818Z,100859.56
2023-04-28T14:28:11.709Z,100854.53
2023-04-28T14:30:38.262Z,100852.88
2023-04-28T14:33:04.850Z,100846.56
2023-04-28T14:35:31.978Z,100839.88
2023-04-28T14:37:58.404Z,100842.38
2023-04-28T14:40:25.582Z,100841.72
2023-04-28T14:42:52.764Z,100839.72
2023-04-28T14:45:19.210Z,100833.72
2023-04-28T14:47:45.746Z,100841.34
2023-04-28T14:50:13.979Z,100836.38
2023-04-28T14:52:41.183Z,100837.16
2023-04-28T14:55:08.112Z,100838.50
2023-04-28T14:57:35.237Z,100832.00
2023-04-28T15:00:02.455Z,100837.50
2023-04-28T15:02:29.563Z,100831.97
2023-04-28T15:04:57.199Z,100824.25
2023-04-28T15:07:24.836Z,100828.59
2023-04-28T15:09:51.416Z,100823.41
2023-04-28T15:12:17.876Z,100828.09
2023-04-28T15:14:44.268Z,100822.41
2023-04-28T15:17:10.765Z,100808.72
2023-04-28T15:19:37.827Z,100810.03
2023-04-28T15:22:04.382Z,100812.81
2023-04-28T15:24:31.077Z,100818.13
2023-04-28T15:26:58.607Z,100809.47
2023-04-28T15:29:25.473Z,100806.13
2023-04-28T15:31:51.925Z,100804.16
2023-04-28T15:34:18.525Z,100805.00
2023-04-28T15:36:45.374Z,100800.19
2023-04-28T15:39:11.814Z,100807.38
2023-04-28T15:41:38.238Z,100798.78
2023-04-28T15:44:04.951Z,100807.06
2023-04-28T15:46:31.770Z,100806.16
2023-04-28T15:48:58.746Z,100798.38
2023-04-28T15:51:25.393Z,100803.94
2023-04-28T15:53:52.049Z,100793.72
2023-04-28T15:56:19.721Z,100793.91
2023-04-28T15:58:47.414Z,100787.28
2023-04-28T16:01:14.122Z,100786.06
2023-04-28T16:03:40.885Z,100779.84
2023-04-28T16:06:08.218Z,100779.34
2023-04-28T16:08:37.700Z,100777.09
2023-04-28T16:11:04.355Z,100773.25
2023-04-28T16:13:36.946Z,100776.25
2023-04-28T16:16:04.095Z,100775.59
2023-04-28T16:18:30.826Z,100770.66
2023-04-28T16:20:57.522Z,100778.81
2023-04-28T16:23:24.054Z,100773.06
2023-04-28T16:25:50.830Z,100773.13
2023-04-28T16:28:17.495Z,100775.88
2023-04-28T16:30:43.958Z,100767.72
2023-04-28T16:33:10.602Z,100771.53
2023-04-28T16:35:37.203Z,100765.16
2023-04-28T16:38:03.894Z,100758.38
2023-04-28T16:40:30.587Z,100761.91
2023-04-28T16:42:57.549Z,100754.06
2023-04-28T16:45:24.129Z,100766.84
2023-04-28T16:47:50.660Z,100766.72
2023-04-28T16:50:17.691Z,100764.31
2023-04-28T16:52:44.133Z,100772.47
2023-04-28T16:55:10.696Z,100772.53
2023-04-28T16:57:37.477Z,100765.94
2023-04-28T17:00:06.132Z,100755.28
2023-04-28T17:02:33.317Z,100754.56
2023-04-28T17:05:00.008Z,100760.78
2023-04-28T17:07:26.721Z,100756.44
2023-04-28T17:09:53.454Z,100761.38
2023-04-28T17:12:20.972Z,100751.13
2023-04-28T17:14:47.554Z,100751.25
2023-04-28T17:17:13.992Z,100748.63
2023-04-28T17:19:41.618Z,100747.38
2023-04-28T17:22:08.298Z,100741.94
2023-04-28T17:24:35.029Z,100740.69
2023-04-28T17:27:01.746Z,100736.53
2023-04-28T17:29:28.203Z,100746.66
2023-04-28T17:31:54.918Z,100743.34
2023-04-28T17:34:21.497Z,100738.41
2023-04-28T17:36:48.082Z,100737.16
2023-04-28T17:39:16.387Z,100742.91
2023-04-28T17:41:43.727Z,100739.47
2023-04-28T17:44:10.167Z,100748.88
2023-04-28T17:46:38.465Z,100745.28
2023-04-28T17:49:05.333Z,100741.84
2023-04-28T17:51:32.411Z,100735.38
2023-04-28T17:53:59.203Z,100744.72
2023-04-28T17:56:26.314Z,100744.84
2023-04-28T17:58:52.864Z,100747.56
2023-04-28T18:01:19.545Z,100747.84
2023-04-28T18:03:46.282Z,100745.50
2023-04-28T18:06:13.731Z,100739.50
2023-04-28T18:08:40.905Z,100745.22
2023-04-28T18:11:09.895Z,100739.25
2023-04-28T18:13:36.496Z,100734.78
2023-04-28T18:16:04.933Z,100734.25
2023-04-28T18:18:34.745Z,100731.78
2023-04-28T18:21:02.377Z,100733.53
2023-04-28T18:23:30.328Z,100733.22
2023-04-28T18:25:57.035Z,100729.78
2023-04-28T18:28:23.454Z,100721.13
2023-04-28T18:30:50.033Z,100726.91
2023-04-28T18:33:23.036Z,100727.75
2023-04-28T18:35:58.457Z,100726.38
2023-04-28T18:38:24.877Z,100720.75
2023-04-28T18:40:51.261Z,100727.63
2023-04-28T18:43:17.646Z,100720.22
2023-04-28T18:45:44.599Z,100710.03
2023-04-28T18:48:11.543Z,100721.91
2023-04-28T18:50:38.298Z,100719.09
2023-04-28T18:53:05.070Z,100720.31
2023-04-28T18:55:34.460Z,100718.75
2023-04-28T18:58:02.153Z,100719.28
2023-04-28T19:00:28.875Z,100712.22
2023-04-28T19:02:55.623Z,100711.03
2023-04-28T19:05:22.389Z,100707.47
2023-04-28T19:07:48.889Z,100712.28
2023-04-28T19:10:15.677Z,100711.81
2023-04-28T19:12:42.119Z,100707.88
2023-04-28T19:15:08.742Z,100715.78
2023-04-28T19:17:35.234Z,100716.94
2023-04-28T19:20:01.809Z,100718.72
2023-04-28T19:22:33.121Z,100710.81
2023-04-28T19:25:00.220Z,100712.91
2023-04-28T19:27:36.029Z,100714.19
2023-04-28T19:30:04.025Z,100709.41
2023-04-28T19:32:30.670Z,100712.94
2023-04-28T19:34:57.126Z,100705.84
2023-04-28T19:37:25.125Z,100707.31
2023-04-28T19:39:51.827Z,100709.84
2023-04-28T19:42:18.574Z,100708.22
2023-04-28T19:44:46.554Z,100695.19
2023-04-28T19:47:13.341Z,100703.53
2023-04-28T19:49:42.110Z,100708.44
2023-04-28T19:52:10.196Z,100714.16
2023-04-28T19:54:38.764Z,100713.00
2023-04-28T19:57:05.365Z,100714.25
2023-04-28T19:59:32.004Z,100715.09
2023-04-28T20:01:58.703Z,100712.06
2023-04-28T20:04:26.004Z,100701.84
2023-04-28T20:06:52.619Z,100711.66
2023-04-28T20:09:19.090Z,100710.09
2023-04-28T20:11:45.618Z,100714.16
2023-04-28T20:14:12.248Z,100706.88
2023-04-28T20:16:38.679Z,100703.75
2023-04-28T20:19:05.087Z,100703.22
2023-04-28T20:21:32.782Z,100697.19
2023-04-28T20:23:59.193Z,100689.78
2023-04-28T20:26:25.632Z,100690.13
2023-04-28T20:28:54.051Z,100684.34
2023-04-28T20:31:20.496Z,100685.28
2023-04-28T20:33:46.953Z,100679.66
2023-04-28T20:36:13.380Z,100673.94
2023-04-28T20:38:39.777Z,100677.56
2023-04-28T20:41:07.755Z,100665.38
2023-04-28T20:43:34.220Z,100665.25
2023-04-28T20:46:00.654Z,100660.59
2023-04-28T20:48:28.981Z,100663.91
2023-04-28T20:50:56.460Z,100659.34
2023-04-28T20:53:22.894Z,100656.16
2023-04-28T20:55:52.110Z,100660.34
2023-04-28T20:58:18.978Z,100651.53
2023-04-28T21:00:45.470Z,100652.16
2023-04-28T21:03:23.489Z,100656.63
2023-04-28T21:05:50.263Z,100649.91
2023-04-28T21:08:17.054Z,100650.44
2023-04-28T21:10:43.469Z,100642.84
2023-04-28T21:13:10.262Z,100642.97
2023-04-28T21:15:43.043Z,100638.69
2023-04-28T21:18:09.626Z,100638.56
2023-04-28T21:20:36.170Z,100639.28
2023-04-28T21:23:02.815Z,100643.88
2023-04-28T21:25:29.328Z,100639.41
2023-04-28T21:27:55.770Z,100642.72
2023-04-28T21:30:22.471Z,100635.53
2023-04-28T21:32:49.099Z,100641.16
2023-04-28T21:35:16.284Z,100641.06
2023-04-28T21:37:42.983Z,100634.09
2023-04-28T21:40:09.939Z,100637.63
2023-04-28T21:42:36.390Z,100634.00
2023-04-28T21:45:02.954Z,100632.53
2023-04-28T21:47:29.885Z,100629.38
2023-04-28T21:49:56.392Z,100616.31
2023-04-28T21:52:22.803Z,100619.97
2023-04-28T21:54:49.211Z,100621.31
2023-04-28T21:57:15.829Z,100613.44
2023-04-28T21:59:42.350Z,100623.19
2023-04-28T22:02:09.096Z,100615.69
2023-04-28T22:04:36.033Z,100616.75
2023-04-28T22:07:02.659Z,100619.97
2023-04-28T22:09:29.167Z,100615.28
2023-04-28T22:11:55.596Z,100616.53
2023-04-28T22:14:39.688Z,100611.19
2023-04-28T22:17:07.686Z,100607.81
2023-04-28T22:19:34.197Z,100610.91
2023-04-28T22:22:00.723Z,100602.72
2023-04-28T22:24:27.807Z,100598.06
2023-04-28T22:26:54.885Z,100604.41
2023-04-28T22:29:21.602Z,100600.16
2023-04-28T22:31:48.095Z,100604.22
2023-04-28T22:34:14.572Z,100594.91
2023-04-28T22:36:41.540Z,100589.16
2023-04-28T22:39:08.244Z,100584.78
2023-04-28T22:41:34.650Z,100587.94
2023-04-28T22:44:01.042Z,100586.81
2023-04-28T22:46:28.813Z,100591.72
2023-04-28T22:48:55.786Z,100591.00
2023-04-28T22:51:22.219Z,100588.91
2023-04-28T22:53:48.672Z,100591.72
2023-04-28T22:56:15.819Z,100588.38
2023-04-28T22:58:42.395Z,100592.44
2023-04-28T23:01:09.116Z,100587.34
2023-04-28T23:03:35.688Z,100582.03
2023-04-28T23:06:02.207Z,100579.97
2023-04-28T23:08:28.612Z,100574.09
2023-04-28T23:10:57.005Z,100581.06
2023-04-28T23:13:23.531Z,100573.75
2023-04-28T23:15:49.979Z,100575.28
2023-04-28T23:18:16.443Z,100567.84
2023-04-28T23:20:42.856Z,100574.59
2023-04-28T23:23:09.297Z,100563.47
2023-04-28T23:25:36.374Z,100561.16
2023-04-28T23:28:03.204Z,100563.97
2023-04-28T23:30:29.725Z,100564.22
2023-04-28T23:32:56.500Z,100568.69
2023-04-28T23:35:22.958Z,100557.34
2023-04-28T23:37:49.371Z,100562.06
2023-04-28T23:40:16.013Z,100555.09
2023-04-28T23:42:42.448Z,100534.88
2023-04-28T23:45:09.773Z,100533.81
2023-04-28T23:47:36.309Z,100528.44
2023-04-28T23:50:03.434Z,100524.50
2023-04-28T23:52:29.892Z,100516.31
2023-04-28T23:54:56.333Z,100516.22
2023-04-28T23:57:23.184Z,100513.31
2023-04-28T23:59:49.831Z,100522.00
